createdAt,value
2018-07-19T19:19:55.683Z,24.10
2018-07-19T19:22:24.058Z,23.70
2018-07-19T19:24:52.402Z,23.60
2018-07-19T19:27:20.864Z,23.40
2018-07-19T19:29:49.182Z,23.40
2018-07-19T19:32:17.578Z,23.30
2018-07-19T19:34:45.955Z,23.20
2018-07-19T19:37:14.331Z,23.10
2018-07-19T19:39:44.815Z,23.00
2018-07-19T19:42:13.316Z,22.90
2018-07-19T19:44:41.759Z,22.80
2018-07-19T19:47:10.132Z,22.70
2018-07-19T19:49:39.131Z,22.60
2018-07-19T19:52:09.276Z,22.50
2018-07-19T19:54:37.936Z,22.40
2018-07-19T19:57:07.000Z,22.40
2018-07-19T19:59:35.343Z,22.30
2018-07-19T20:02:04.330Z,22.20
2018-07-19T20:04:32.768Z,22.20
2018-07-19T20:07:01.143Z,22.20
2018-07-19T20:09:29.512Z,22.10
2018-07-19T20:11:58.264Z,22.10
2018-07-19T20:14:26.762Z,22.10
2018-07-19T20:16:55.462Z,22.00
2018-07-19T20:19:24.178Z,22.00
2018-07-19T20:21:52.760Z,22.00
2018-07-19T20:24:21.136Z,22.00
2018-07-19T20:26:49.960Z,22.00
2018-07-19T20:29:18.448Z,21.90
2018-07-19T20:31:46.854Z,21.80
2018-07-19T20:34:15.253Z,21.80
2018-07-19T20:39:12.158Z,21.80
2018-07-19T20:41:40.526Z,21.70
2018-07-19T20:44:08.870Z,21.60
2018-07-19T20:46:37.188Z,21.60
2018-07-19T20:49:05.648Z,21.60
2018-07-19T20:51:34.022Z,21.60
2018-07-19T20:54:03.196Z,21.50
2018-07-19T20:56:31.529Z,21.50
2018-07-19T20:58:59.893Z,21.40
2018-07-19T21:01:28.254Z,21.30
2018-07-19T21:03:56.602Z,21.30
2018-07-19T21:06:24.999Z,21.20
2018-07-19T21:08:53.369Z,21.20
2018-07-19T21:11:21.738Z,21.10
2018-07-19T21:13:50.109Z,21.10
2018-07-19T21:16:18.471Z,21.00
2018-07-19T21:18:46.789Z,21.00
2018-07-19T21:21:15.137Z,21.00
2018-07-19T21:23:43.472Z,20.90
2018-07-19T21:26:11.832Z,20.80
2018-07-19T21:31:08.295Z,20.70
2018-07-19T21:33:36.611Z,20.70
2018-07-19T21:36:05.239Z,20.70
2018-07-19T21:38:33.605Z,20.60
2018-07-19T21:41:02.423Z,20.60
2018-07-19T21:43:30.786Z,20.60
2018-07-19T21:45:59.098Z,20.50
2018-07-19T21:48:27.440Z,20.50
2018-07-19T21:50:55.752Z,20.60
2018-07-19T21:55:58.747Z,20.60
2018-07-19T21:58:27.075Z,20.50
2018-07-19T22:01:00.938Z,20.40
2018-07-19T22:03:29.290Z,20.40
2018-07-19T22:05:57.714Z,20.40
2018-07-19T22:08:26.028Z,20.30
2018-07-19T22:10:54.348Z,20.30
2018-07-19T22:13:22.702Z,20.30
2018-07-19T22:15:51.064Z,20.30
2018-07-19T22:18:19.399Z,20.30
2018-07-19T22:20:47.934Z,20.20
2018-07-19T22:23:16.282Z,20.20
2018-07-19T22:25:44.650Z,20.20
2018-07-19T22:28:13.005Z,20.20
2018-07-19T22:30:41.332Z,20.10
2018-07-19T22:33:09.677Z,20.10
2018-07-19T22:35:38.087Z,20.10
2018-07-19T22:38:06.404Z,20.10
2018-07-19T22:40:34.755Z,20.10
2018-07-19T22:43:03.202Z,20.10
2018-07-19T22:45:31.711Z,20.10
2018-07-19T22:48:00.003Z,20.10
2018-07-19T22:50:28.356Z,20.10
2018-07-19T22:52:56.638Z,20.10
2018-07-19T22:55:24.980Z,20.00
2018-07-19T22:57:53.294Z,20.00
2018-07-19T23:00:21.639Z,19.90
2018-07-19T23:02:50.039Z,19.90
2018-07-19T23:05:18.418Z,19.90
2018-07-19T23:07:46.741Z,19.90
2018-07-19T23:10:15.084Z,19.90
2018-07-19T23:12:43.403Z,19.80
2018-07-19T23:15:12.115Z,19.80
2018-07-19T23:17:40.439Z,19.80
2018-07-19T23:20:08.860Z,19.80
2018-07-19T23:22:37.177Z,19.80
2018-07-19T23:25:05.519Z,19.80
2018-07-19T23:27:33.839Z,19.70
2018-07-19T23:30:02.155Z,19.60
2018-07-19T23:32:30.462Z,19.50
2018-07-19T23:34:58.913Z,19.50
2018-07-19T23:37:31.693Z,19.40
2018-07-19T23:40:09.903Z,19.40
2018-07-19T23:42:44.178Z,19.30
2018-07-19T23:45:49.604Z,19.30
2018-07-19T23:48:17.959Z,19.20
2018-07-19T23:50:46.260Z,19.10
2018-07-19T23:53:14.577Z,19.00
2018-07-19T23:55:42.916Z,19.00
2018-07-19T23:58:11.222Z,19.00
